createdAt,value
2023-03-25T00:01:26.195Z,98656.91
2023-03-25T00:03:54.608Z,98650.17
2023-03-25T00:06:22.635Z,98646.29
2023-03-25T00:08:52.108Z,98646.95
2023-03-25T00:11:20.439Z,98644.00
2023-03-25T00:13:48.640Z,98641.46
2023-03-25T00:16:25.845Z,98645.89
2023-03-25T00:18:54.168Z,98638.61
2023-03-25T00:21:23.484Z,98637.14
2023-03-25T00:23:51.598Z,98637.79
2023-03-25T00:26:21.572Z,98636.25
2023-03-25T00:28:49.614Z,98637.31
2023-03-25T00:31:19.611Z,98639.13
2023-03-25T00:33:50.976Z,98655.44
2023-03-25T00:36:22.764Z,98657.05
2023-03-25T00:38:51.506Z,98648.64
2023-03-25T00:41:27.856Z,98649.25
2023-03-25T00:43:58.517Z,98646.62
2023-03-25T00:46:29.028Z,98643.22
2023-03-25T00:48:58.440Z,98643.31
2023-03-25T00:51:31.359Z,98639.56
2023-03-25T00:54:03.544Z,98636.41
2023-03-25T00:56:34.232Z,98635.70
2023-03-25T00:59:02.692Z,98635.39
2023-03-25T01:01:31.175Z,98634.67
2023-03-25T01:04:00.597Z,98634.13
2023-03-25T01:06:32.543Z,98634.54
2023-03-25T01:09:05.972Z,98632.94
2023-03-25T01:11:35.074Z,98632.55
2023-03-25T01:14:05.358Z,98632.30
2023-03-25T01:16:33.830Z,98631.42
2023-03-25T01:19:01.959Z,98631.38
2023-03-25T01:21:34.066Z,98630.98
2023-03-25T01:24:06.219Z,98634.20
2023-03-25T01:26:34.701Z,98633.73
2023-03-25T01:29:03.041Z,98637.51
2023-03-25T01:31:32.262Z,98641.10
2023-03-25T01:34:00.918Z,98636.13
2023-03-25T01:36:29.761Z,98637.19
2023-03-25T01:38:59.244Z,98635.35
2023-03-25T01:41:42.275Z,98635.80
2023-03-25T01:44:20.085Z,98637.15
2023-03-25T01:46:49.880Z,98638.41
2023-03-25T01:49:40.873Z,98635.77
2023-03-25T01:52:21.656Z,98636.96
2023-03-25T01:54:51.112Z,98640.59
2023-03-25T01:57:20.454Z,98637.27
2023-03-25T01:59:48.729Z,98635.62
2023-03-25T02:02:20.229Z,98632.23
2023-03-25T02:04:59.424Z,98631.39
2023-03-25T02:07:31.176Z,98630.48
2023-03-25T02:10:05.859Z,98627.45
2023-03-25T02:12:34.437Z,98628.80
2023-03-25T02:15:04.785Z,98626.52
2023-03-25T02:17:36.610Z,98623.17
2023-03-25T02:20:22.837Z,98624.19
2023-03-25T02:23:10.305Z,98623.56
2023-03-25T02:26:17.817Z,98621.81
2023-03-25T02:28:53.121Z,98620.16
2023-03-25T02:31:32.577Z,98618.67
2023-03-25T02:34:32.245Z,98609.68
2023-03-25T02:37:22.993Z,98600.88
2023-03-25T02:40:01.038Z,98602.82
2023-03-25T02:42:37.557Z,98605.98
2023-03-25T02:45:13.063Z,98605.02
2023-03-25T02:47:49.281Z,98611.33
2023-03-25T02:50:21.670Z,98618.76
2023-03-25T02:52:51.597Z,98614.91
2023-03-25T02:55:22.882Z,98609.77
2023-03-25T02:57:53.294Z,98613.35
2023-03-25T03:00:29.203Z,98610.48
2023-03-25T03:03:01.248Z,98607.54
2023-03-25T03:05:32.857Z,98607.75
2023-03-25T03:08:07.084Z,98603.41
2023-03-25T03:11:17.057Z,98601.71
2023-03-25T03:13:51.144Z,98604.05
2023-03-25T03:16:41.905Z,98609.42
2023-03-25T03:19:40.254Z,98611.27
2023-03-25T03:22:52.967Z,98612.73
2023-03-25T03:25:32.995Z,98608.41
2023-03-25T03:28:11.383Z,98602.95
2023-03-25T03:30:54.473Z,98601.45
2023-03-25T03:33:47.539Z,98600.20
2023-03-25T03:36:17.599Z,98596.91
2023-03-25T03:38:57.531Z,98593.53
2023-03-25T03:41:27.232Z,98588.13
2023-03-25T03:44:02.914Z,98585.63
2023-03-25T03:46:44.160Z,98583.82
2023-03-25T03:49:17.277Z,98579.65
2023-03-25T03:51:54.322Z,98584.92
2023-03-25T03:54:27.122Z,98587.40
2023-03-25T03:57:07.766Z,98583.25
2023-03-25T03:59:53.765Z,98584.93
2023-03-25T04:02:28.558Z,98588.27
2023-03-25T04:05:00.996Z,98585.11
2023-03-25T04:07:41.836Z,98585.52
2023-03-25T04:10:22.118Z,98587.91
2023-03-25T04:12:52.050Z,98587.08
2023-03-25T04:15:23.009Z,98591.05
2023-03-25T04:17:52.962Z,98597.50
2023-03-25T04:20:24.148Z,98590.08
2023-03-25T04:22:52.716Z,98590.04
2023-03-25T04:25:25.431Z,98591.64
2023-03-25T04:27:53.964Z,98590.67
2023-03-25T04:30:23.028Z,98592.33
2023-03-25T04:32:51.872Z,98589.70
2023-03-25T04:35:20.460Z,98592.14
2023-03-25T04:37:53.995Z,98594.21
2023-03-25T04:40:22.034Z,98596.16
2023-03-25T04:42:51.242Z,98596.55
2023-03-25T04:45:19.501Z,98590.63
2023-03-25T04:47:49.448Z,98590.63
2023-03-25T04:50:26.006Z,98588.34
2023-03-25T04:52:54.666Z,98589.10
2023-03-25T04:55:23.944Z,98585.25
2023-03-25T04:57:53.896Z,98578.77
2023-03-25T05:00:25.006Z,98580.80
2023-03-25T05:02:55.049Z,98582.06
2023-03-25T05:05:24.862Z,98571.98
2023-03-25T05:07:58.430Z,98566.93
2023-03-25T05:10:29.848Z,98563.47
2023-03-25T05:13:03.314Z,98563.05
2023-03-25T05:15:39.364Z,98560.05
2023-03-25T05:18:15.286Z,98556.44
2023-03-25T05:20:51.286Z,98561.09
2023-03-25T05:23:22.234Z,98560.38
2023-03-25T05:25:51.422Z,98557.20
2023-03-25T05:28:20.109Z,98562.73
2023-03-25T05:30:48.484Z,98558.34
2023-03-25T05:33:22.462Z,98553.77
2023-03-25T05:35:51.208Z,98551.96
2023-03-25T05:38:19.702Z,98551.05
2023-03-25T05:40:48.516Z,98550.24
2023-03-25T05:43:23.257Z,98545.92
2023-03-25T05:45:53.058Z,98544.38
2023-03-25T05:48:21.726Z,98540.08
2023-03-25T05:50:50.544Z,98537.63
2023-03-25T05:53:20.820Z,98539.13
2023-03-25T05:55:52.728Z,98539.52
2023-03-25T05:58:25.372Z,98542.73
2023-03-25T06:00:55.385Z,98541.70
2023-03-25T06:03:26.270Z,98542.52
2023-03-25T06:05:55.074Z,98539.06
2023-03-25T06:08:26.549Z,98537.14
2023-03-25T06:11:00.871Z,98533.77
2023-03-25T06:13:34.086Z,98530.91
2023-03-25T06:16:03.222Z,98528.00
2023-03-25T06:18:33.536Z,98520.96
2023-03-25T06:21:01.644Z,98517.64
2023-03-25T06:23:30.048Z,98517.45
2023-03-25T06:25:58.748Z,98525.97
2023-03-25T06:28:27.123Z,98527.79
2023-03-25T06:31:07.226Z,98526.13
2023-03-25T06:33:50.072Z,98515.92
2023-03-25T06:36:18.908Z,98514.29
2023-03-25T06:38:50.855Z,98516.20
2023-03-25T06:41:25.249Z,98514.19
2023-03-25T06:44:16.967Z,98509.42
2023-03-25T06:47:11.521Z,98508.73
2023-03-25T06:49:45.321Z,98513.70
2023-03-25T06:52:13.696Z,98507.95
2023-03-25T06:54:42.330Z,98513.27
2023-03-25T06:57:10.878Z,98515.92
2023-03-25T06:59:38.983Z,98515.68
2023-03-25T07:02:07.237Z,98511.88
2023-03-25T07:04:35.294Z,98508.05
2023-03-25T07:07:04.295Z,98510.83
2023-03-25T07:09:34.309Z,98512.61
2023-03-25T07:12:02.596Z,98507.58
2023-03-25T07:14:31.042Z,98507.39
2023-03-25T07:16:59.178Z,98504.94
2023-03-25T07:19:32.284Z,98498.55
2023-03-25T07:22:03.105Z,98500.20
2023-03-25T07:24:32.878Z,98504.41
2023-03-25T07:27:01.411Z,98504.90
2023-03-25T07:29:30.562Z,98497.96
2023-03-25T07:31:58.822Z,98494.38
2023-03-25T07:34:31.438Z,98489.88
2023-03-25T07:37:02.381Z,98489.08
2023-03-25T07:39:30.477Z,98487.21
2023-03-25T07:42:00.136Z,98476.03
2023-03-25T07:44:46.928Z,98486.54
2023-03-25T07:47:15.811Z,98485.79
2023-03-25T07:49:44.764Z,98478.19
2023-03-25T07:52:12.844Z,98472.65
2023-03-25T07:54:43.341Z,98471.75
2023-03-25T07:57:11.526Z,98462.27
2023-03-25T07:59:47.821Z,98461.48
2023-03-25T08:02:16.228Z,98460.75
2023-03-25T08:04:44.796Z,98457.45
2023-03-25T08:07:13.165Z,98454.52
2023-03-25T08:09:42.933Z,98453.54
2023-03-25T08:12:11.311Z,98455.95
2023-03-25T08:14:43.309Z,98450.52
2023-03-25T08:17:11.559Z,98447.27
2023-03-25T08:19:41.789Z,98443.90
2023-03-25T08:22:11.049Z,98438.80
2023-03-25T08:24:39.614Z,98436.15
2023-03-25T08:27:16.335Z,98438.13
2023-03-25T08:29:47.147Z,98437.02
2023-03-25T08:32:15.525Z,98428.39
2023-03-25T08:34:43.690Z,98428.70
2023-03-25T08:37:13.943Z,98425.42
2023-03-25T08:39:45.316Z,98424.54
2023-03-25T08:42:13.813Z,98419.07
2023-03-25T08:44:41.874Z,98415.83
2023-03-25T08:47:09.896Z,98422.27
2023-03-25T08:49:41.588Z,98421.96
2023-03-25T08:52:11.448Z,98419.94
2023-03-25T08:54:40.367Z,98425.58
2023-03-25T08:57:09.131Z,98422.44
2023-03-25T08:59:37.940Z,98419.14
2023-03-25T09:02:06.453Z,98419.02
2023-03-25T09:04:41.012Z,98416.42
2023-03-25T09:07:12.656Z,98415.44
2023-03-25T09:09:41.350Z,98417.70
2023-03-25T09:12:14.130Z,98418.14
2023-03-25T09:14:43.107Z,98421.50
2023-03-25T09:17:11.180Z,98425.30
2023-03-25T09:19:41.018Z,98422.16
2023-03-25T09:22:09.352Z,98417.68
2023-03-25T09:24:38.385Z,98412.30
2023-03-25T09:27:07.702Z,98412.59
2023-03-25T09:29:36.593Z,98416.39
2023-03-25T09:32:18.726Z,98406.09
2023-03-25T09:34:48.419Z,98398.60
2023-03-25T09:37:16.436Z,98395.48
2023-03-25T09:39:46.227Z,98392.16
2023-03-25T09:42:31.184Z,98385.70
2023-03-25T09:45:17.846Z,98384.08
2023-03-25T09:47:53.304Z,98385.54
2023-03-25T09:50:21.401Z,98388.99
2023-03-25T09:52:56.279Z,98408.89
2023-03-25T09:55:28.944Z,98404.31
2023-03-25T09:58:24.279Z,98393.85
2023-03-25T10:01:16.071Z,98385.12
2023-03-25T10:03:53.391Z,98385.06
2023-03-25T10:06:22.169Z,98384.39
2023-03-25T10:09:00.333Z,98375.13
2023-03-25T10:11:40.847Z,98357.55
2023-03-25T10:14:19.860Z,98354.69
2023-03-25T10:16:54.600Z,98364.13
2023-03-25T10:19:57.187Z,98372.20
2023-03-25T10:22:28.498Z,98375.58
2023-03-25T10:25:00.976Z,98366.42
2023-03-25T10:27:41.649Z,98359.95
2023-03-25T10:30:23.284Z,98355.70
2023-03-25T10:32:57.547Z,98354.11
2023-03-25T10:35:30.069Z,98351.95
2023-03-25T10:38:24.418Z,98351.68
2023-03-25T10:41:11.578Z,98351.70
2023-03-25T10:43:42.221Z,98354.20
2023-03-25T10:46:28.852Z,98349.92
2023-03-25T10:48:58.293Z,98348.94
2023-03-25T10:51:28.505Z,98342.88
2023-03-25T10:54:05.259Z,98342.81
2023-03-25T10:56:35.763Z,98339.63
2023-03-25T10:59:08.798Z,98339.81
2023-03-25T11:01:38.441Z,98333.47
2023-03-25T11:04:18.713Z,98323.92
2023-03-25T11:06:55.482Z,98324.92
2023-03-25T11:09:30.801Z,98320.17
2023-03-25T11:12:05.138Z,98313.91
2023-03-25T11:14:37.801Z,98318.04
2023-03-25T11:17:11.941Z,98311.67
2023-03-25T11:19:53.286Z,98303.48
2023-03-25T11:22:29.159Z,98298.09
2023-03-25T11:25:05.019Z,98291.86
2023-03-25T11:27:41.085Z,98291.61
2023-03-25T11:30:16.432Z,98293.94
2023-03-25T11:32:46.804Z,98295.04
2023-03-25T11:35:19.133Z,98295.09
2023-03-25T11:37:49.372Z,98293.75
2023-03-25T11:40:19.227Z,98297.71
2023-03-25T11:42:52.477Z,98299.19
2023-03-25T11:45:33.316Z,98298.63
2023-03-25T11:48:13.395Z,98305.13
2023-03-25T11:50:46.985Z,98306.57
2023-03-25T11:53:16.209Z,98310.39
2023-03-25T11:55:46.564Z,98304.05
2023-03-25T11:58:16.103Z,98302.05
2023-03-25T12:00:51.696Z,98305.84
2023-03-25T12:03:23.179Z,98297.88
2023-03-25T12:06:06.434Z,98296.67
2023-03-25T12:08:56.662Z,98301.08
2023-03-25T12:11:42.768Z,98302.87
2023-03-25T12:14:32.926Z,98304.09
2023-03-25T12:17:01.120Z,98302.02
2023-03-25T12:19:55.086Z,98303.05
2023-03-25T12:22:43.340Z,98302.47
2023-03-25T12:25:35.001Z,98307.44
2023-03-25T12:28:18.939Z,98306.73
2023-03-25T12:31:15.614Z,98308.46
2023-03-25T12:34:02.593Z,98308.10
2023-03-25T12:37:06.521Z,98306.27
2023-03-25T12:40:03.893Z,98299.54
2023-03-25T12:42:40.467Z,98299.73
2023-03-25T12:45:17.193Z,98298.30
2023-03-25T12:48:06.590Z,98291.83
2023-03-25T12:50:44.142Z,98293.48
2023-03-25T12:53:19.688Z,98294.72
2023-03-25T12:55:57.278Z,98293.23
2023-03-25T12:58:50.699Z,98293.08
2023-03-25T13:01:49.280Z,98296.07
2023-03-25T13:04:24.477Z,98299.24
2023-03-25T13:07:02.014Z,98296.83
2023-03-25T13:09:45.060Z,98295.21
2023-03-25T13:12:22.874Z,98296.04
2023-03-25T13:14:57.589Z,98292.11
2023-03-25T13:17:49.089Z,98285.33
2023-03-25T13:20:17.937Z,98282.16
2023-03-25T13:22:51.447Z,98278.92
2023-03-25T13:25:36.908Z,98274.35
2023-03-25T13:28:06.683Z,98274.77
2023-03-25T13:30:37.128Z,98272.85
2023-03-25T13:33:08.329Z,98272.43
2023-03-25T13:35:57.921Z,98267.25
2023-03-25T13:38:33.156Z,98268.67
2023-03-25T13:41:15.388Z,98265.02
2023-03-25T13:43:56.746Z,98262.89
2023-03-25T13:46:47.397Z,98261.55
2023-03-25T13:49:31.040Z,98259.88
2023-03-25T13:52:00.176Z,98252.20
2023-03-25T13:54:35.282Z,98244.14
2023-03-25T13:57:13.365Z,98238.39
2023-03-25T13:59:48.073Z,98235.52
2023-03-25T14:02:38.972Z,98232.32
2023-03-25T14:05:32.538Z,98228.73
2023-03-25T14:08:31.406Z,98222.95
2023-03-25T14:11:17.673Z,98222.77
2023-03-25T14:13:56.198Z,98219.39
2023-03-25T14:16:29.144Z,98212.50
2023-03-25T14:19:09.655Z,98214.20
2023-03-25T14:21:38.466Z,98205.21
2023-03-25T14:24:18.302Z,98205.24
2023-03-25T14:26:52.846Z,98204.70
2023-03-25T14:29:34.601Z,98200.28
2023-03-25T14:32:16.597Z,98204.63
2023-03-25T14:34:50.241Z,98203.16
2023-03-25T14:37:21.781Z,98199.14
2023-03-25T14:39:51.428Z,98198.36
2023-03-25T14:42:24.308Z,98197.56
2023-03-25T14:44:56.180Z,98194.20
2023-03-25T14:47:32.286Z,98188.27
2023-03-25T14:50:22.086Z,98193.09
2023-03-25T14:52:52.079Z,98189.46
2023-03-25T14:55:41.229Z,98184.41
2023-03-25T14:58:26.442Z,98183.95
2023-03-25T15:01:10.334Z,98182.05
2023-03-25T15:03:40.476Z,98184.27
2023-03-25T15:06:09.949Z,98180.98
2023-03-25T15:08:39.899Z,98181.45
2023-03-25T15:11:17.157Z,98185.29
2023-03-25T15:13:56.191Z,98179.70
2023-03-25T15:16:37.954Z,98175.11
2023-03-25T15:19:13.634Z,98170.35
2023-03-25T15:21:58.278Z,98165.93
2023-03-25T15:24:33.486Z,98164.92
2023-03-25T15:27:30.183Z,98162.24
2023-03-25T15:30:25.991Z,98160.70
2023-03-25T15:33:13.796Z,98156.61
2023-03-25T15:36:08.635Z,98158.73
2023-03-25T15:39:06.904Z,98154.19
2023-03-25T15:42:13.384Z,98147.98
2023-03-25T15:45:03.519Z,98135.95
2023-03-25T15:47:44.644Z,98137.77
2023-03-25T15:50:38.267Z,98133.06
2023-03-25T15:53:32.799Z,98128.89
2023-03-25T15:56:16.135Z,98124.91
2023-03-25T15:59:08.353Z,98126.86
2023-03-25T16:01:40.882Z,98128.37
2023-03-25T16:04:12.318Z,98133.34
2023-03-25T16:06:42.574Z,98134.64
2023-03-25T16:09:18.164Z,98132.42
2023-03-25T16:11:47.177Z,98134.06
2023-03-25T16:14:21.162Z,98132.29
2023-03-25T16:16:51.977Z,98132.95
2023-03-25T16:19:22.664Z,98135.48
2023-03-25T16:21:52.454Z,98137.50
2023-03-25T16:24:23.812Z,98134.77
2023-03-25T16:26:53.051Z,98135.56
2023-03-25T16:29:25.060Z,98137.67
2023-03-25T16:31:56.816Z,98140.53
2023-03-25T16:34:25.958Z,98139.31
2023-03-25T16:36:54.715Z,98142.52
2023-03-25T16:39:23.178Z,98142.05
2023-03-25T16:41:53.486Z,98144.60
2023-03-25T16:44:22.986Z,98141.86
2023-03-25T16:46:52.443Z,98142.51
2023-03-25T16:49:31.846Z,98140.10
2023-03-25T16:52:06.895Z,98138.49
2023-03-25T16:54:43.684Z,98140.44
2023-03-25T16:57:16.894Z,98140.02
2023-03-25T16:59:46.853Z,98134.09
2023-03-25T17:02:28.536Z,98132.25
2023-03-25T17:05:22.438Z,98132.14
2023-03-25T17:07:56.759Z,98127.48
2023-03-25T17:10:29.494Z,98125.98
2023-03-25T17:13:31.871Z,98122.79
2023-03-25T17:16:00.789Z,98119.27
2023-03-25T17:18:30.639Z,98120.94
2023-03-25T17:21:04.250Z,98122.16
2023-03-25T17:23:36.353Z,98122.56
2023-03-25T17:26:08.327Z,98115.78
2023-03-25T17:28:41.552Z,98116.91
2023-03-25T17:31:39.604Z,98114.31
2023-03-25T17:34:08.432Z,98118.59
2023-03-25T17:36:40.592Z,98120.53
2023-03-25T17:39:24.977Z,98121.61
2023-03-25T17:42:01.564Z,98121.02
2023-03-25T17:44:37.449Z,98121.16
2023-03-25T17:47:07.158Z,98121.17
2023-03-25T17:49:37.482Z,98123.90
2023-03-25T17:52:08.558Z,98119.74
2023-03-25T17:54:38.900Z,98118.60
2023-03-25T17:57:10.666Z,98112.02
2023-03-25T17:59:38.847Z,98102.41
2023-03-25T18:02:14.717Z,98104.48
2023-03-25T18:04:42.984Z,98086.90
2023-03-25T18:07:13.309Z,98081.80
2023-03-25T18:09:42.548Z,98081.46
2023-03-25T18:12:15.768Z,98076.05
2023-03-25T18:14:45.058Z,98080.65
2023-03-25T18:17:13.201Z,98072.82
2023-03-25T18:19:47.579Z,98071.34
2023-03-25T18:22:20.146Z,98070.98
2023-03-25T18:24:49.184Z,98075.32
2023-03-25T18:27:27.741Z,98066.89
2023-03-25T18:30:29.553Z,98071.32
2023-03-25T18:32:58.426Z,98066.23
2023-03-25T18:35:27.308Z,98066.24
2023-03-25T18:37:55.811Z,98062.52
2023-03-25T18:40:27.465Z,98064.30
2023-03-25T18:42:56.161Z,98058.87
2023-03-25T18:45:24.918Z,98063.96
2023-03-25T18:47:54.139Z,98063.05
2023-03-25T18:50:30.705Z,98067.35
2023-03-25T18:53:01.977Z,98073.61
2023-03-25T18:55:32.371Z,98082.36
2023-03-25T18:58:00.509Z,98084.19
2023-03-25T19:00:48.275Z,98084.90
2023-03-25T19:03:17.990Z,98084.09
2023-03-25T19:05:50.419Z,98076.66
2023-03-25T19:08:23.545Z,98070.65
2023-03-25T19:10:55.852Z,98065.04
2023-03-25T19:13:34.959Z,98059.81
2023-03-25T19:16:04.185Z,98062.88
2023-03-25T19:18:33.249Z,98061.38
2023-03-25T19:21:10.140Z,98059.54
2023-03-25T19:23:41.547Z,98057.38
2023-03-25T19:26:09.626Z,98057.30
2023-03-25T19:28:38.593Z,98054.86
2023-03-25T19:31:07.066Z,98055.52
2023-03-25T19:33:35.271Z,98058.40
2023-03-25T19:36:04.779Z,98058.90
2023-03-25T19:38:33.194Z,98052.92
2023-03-25T19:41:09.116Z,98041.23
2023-03-25T19:43:38.583Z,98030.36
2023-03-25T19:46:07.340Z,98019.80
2023-03-25T19:48:36.264Z,98025.98
2023-03-25T19:51:04.635Z,98031.13
2023-03-25T19:53:34.380Z,98036.09
2023-03-25T19:56:04.236Z,98037.73
2023-03-25T19:58:34.832Z,98035.98
2023-03-25T20:01:03.268Z,98030.85
2023-03-25T20:03:33.772Z,98030.49
2023-03-25T20:06:02.842Z,98034.45
2023-03-25T20:08:32.326Z,98034.80
2023-03-25T20:11:01.435Z,98030.80
2023-03-25T20:13:36.719Z,98024.14
2023-03-25T20:16:05.859Z,98019.20
2023-03-25T20:18:34.346Z,98011.24
2023-03-25T20:21:02.499Z,98006.35
2023-03-25T20:23:30.935Z,97998.00
2023-03-25T20:25:58.975Z,97990.35
2023-03-25T20:28:28.089Z,97989.19
2023-03-25T20:30:57.734Z,97989.17
2023-03-25T20:33:28.215Z,97987.12
2023-03-25T20:35:56.798Z,97981.27
2023-03-25T20:38:24.950Z,97984.20
2023-03-25T20:40:54.676Z,97980.27
2023-03-25T20:43:23.051Z,97972.83
2023-03-25T20:45:56.549Z,97969.46
2023-03-25T20:48:28.296Z,97966.23
2023-03-25T20:51:04.505Z,97975.84
2023-03-25T20:53:34.983Z,97981.23
2023-03-25T20:56:03.218Z,97979.42
2023-03-25T20:58:32.250Z,97965.48
2023-03-25T21:01:00.548Z,97955.94
2023-03-25T21:03:29.546Z,97942.64
2023-03-25T21:06:00.483Z,97942.03
2023-03-25T21:08:31.900Z,97946.59
2023-03-25T21:11:01.793Z,97936.71
2023-03-25T21:13:34.967Z,97936.67
2023-03-25T21:16:04.156Z,97931.35
2023-03-25T21:18:32.398Z,97927.30
2023-03-25T21:21:01.498Z,97925.56
2023-03-25T21:23:31.033Z,97928.23
2023-03-25T21:26:09.217Z,97920.18
2023-03-25T21:28:40.914Z,97919.85
2023-03-25T21:31:14.137Z,97916.17
2023-03-25T21:33:45.733Z,97916.70
2023-03-25T21:36:14.768Z,97911.33
2023-03-25T21:38:45.407Z,97910.56
2023-03-25T21:41:13.717Z,97904.44
2023-03-25T21:43:42.465Z,97901.80
2023-03-25T21:46:11.117Z,97898.63
2023-03-25T21:48:40.218Z,97893.69
2023-03-25T21:51:14.521Z,97890.27
2023-03-25T21:53:46.747Z,97891.07
2023-03-25T21:56:20.983Z,97890.94
2023-03-25T21:58:49.020Z,97891.77
2023-03-25T22:01:28.572Z,97885.33
2023-03-25T22:03:57.610Z,97883.77
2023-03-25T22:06:28.538Z,97883.70
2023-03-25T22:08:59.452Z,97881.06
2023-03-25T22:11:30.901Z,97878.80
2023-03-25T22:13:59.016Z,97884.43
2023-03-25T22:16:28.184Z,97885.46
2023-03-25T22:18:56.549Z,97878.61
2023-03-25T22:21:29.668Z,97879.25
2023-03-25T22:24:05.459Z,97880.55
2023-03-25T22:26:35.146Z,97876.21
2023-03-25T22:29:07.800Z,97870.36
2023-03-25T22:31:39.823Z,97874.75
2023-03-25T22:34:12.821Z,97871.94
2023-03-25T22:36:46.466Z,97874.02
2023-03-25T22:39:16.719Z,97874.34
2023-03-25T22:41:45.037Z,97875.27
2023-03-25T22:44:17.067Z,97875.38
2023-03-25T22:46:48.870Z,97876.48
2023-03-25T22:49:17.363Z,97872.80
2023-03-25T22:51:48.970Z,97875.98
2023-03-25T22:54:17.398Z,97878.36
2023-03-25T22:56:46.208Z,97878.48
2023-03-25T22:59:14.781Z,97880.58
2023-03-25T23:01:46.735Z,97879.33
2023-03-25T23:04:14.849Z,97880.05
2023-03-25T23:06:44.096Z,97883.06
2023-03-25T23:09:35.157Z,97879.86
2023-03-25T23:12:03.373Z,97877.36
2023-03-25T23:14:32.731Z,97877.17
2023-03-25T23:17:01.277Z,97878.47
2023-03-25T23:19:29.798Z,97871.48
2023-03-25T23:22:01.480Z,97865.06
2023-03-25T23:24:30.712Z,97865.69
2023-03-25T23:26:58.986Z,97863.09
2023-03-25T23:29:27.214Z,97865.94
2023-03-25T23:31:55.738Z,97863.35
2023-03-25T23:34:23.787Z,97859.37
2023-03-25T23:36:52.169Z,97857.09
2023-03-25T23:39:22.864Z,97855.14
2023-03-25T23:41:51.101Z,97857.39
2023-03-25T23:44:19.502Z,97854.59
2023-03-25T23:46:51.276Z,97855.31
2023-03-25T23:49:20.302Z,97858.28
2023-03-25T23:51:51.169Z,97860.45
2023-03-25T23:54:19.692Z,97857.55
2023-03-25T23:56:47.795Z,97856.98
2023-03-25T23:59:16.333Z,97855.80
